Time;durP1;ratioP1;P1;durP2;ratioP2;P2;SDS_P1;SDS_P2;PMS_P1;PMS_P2;Temp;Humidity;BMP_temperature;BMP_pressure;BME280_temperature;BME280_humidity;BME280_pressure;Samples;Min_cycle;Max_cycle;Signal;HPM_P1;HPM_P2
2021/08/10 00:02:16;;;;;;;4.50;2.78;;;16.40;99.90;;;;;;4976244;28;20030;-72
2021/08/10 00:04:42;;;;;;;5.85;3.25;;;16.40;99.90;;;;;;4974297;28;20039;-72
2021/08/10 00:07:08;;;;;;;6.72;2.75;;;16.50;99.90;;;;;;4974507;28;20026;-70
2021/08/10 00:09:35;;;;;;;5.72;3.20;;;16.50;99.90;;;;;;4974771;28;20034;-72
2021/08/10 00:12:01;;;;;;;4.90;2.80;;;16.50;99.90;;;;;;4970937;28;20035;-72
2021/08/10 00:14:27;;;;;;;7.35;3.33;;;16.60;99.90;;;;;;4971394;28;20070;-71
2021/08/10 00:16:53;;;;;;;4.40;2.60;;;16.60;99.90;;;;;;4974171;28;20051;-72
2021/08/10 00:19:20;;;;;;;5.80;2.88;;;16.60;99.90;;;;;;4974764;28;20384;-71
2021/08/10 00:21:46;;;;;;;6.03;3.05;;;16.60;99.90;;;;;;4973331;28;20027;-71
2021/08/10 00:24:12;;;;;;;9.32;3.40;;;16.60;99.90;;;;;;4974041;28;20388;-71
2021/08/10 00:26:38;;;;;;;8.80;3.45;;;16.50;99.90;;;;;;4967154;28;20031;-72
2021/08/10 00:29:04;;;;;;;5.60;3.22;;;16.30;99.90;;;;;;4960603;28;20035;-72
2021/08/10 00:31:31;;;;;;;7.82;3.63;;;16.20;99.90;;;;;;4973507;28;20212;-71
2021/08/10 00:33:57;;;;;;;7.75;3.40;;;16.20;99.90;;;;;;4974068;28;20046;-72
2021/08/10 00:36:24;;;;;;;4.63;2.92;;;16.10;99.90;;;;;;4973714;28;20480;-72
2021/08/10 00:38:50;;;;;;;6.63;3.03;;;16.00;99.90;;;;;;4956592;28;20394;-71
2021/08/10 00:41:18;;;;;;;6.53;3.05;;;16.00;99.90;;;;;;4972559;28;20079;-71
2021/08/10 00:43:48;;;;;;;5.55;3.15;;;15.90;99.90;;;;;;4969914;28;20051;-71
2021/08/10 00:46:24;;;;;;;5.25;3.17;;;15.80;99.90;;;;;;4973820;28;20043;-71
2021/08/10 00:48:51;;;;;;;6.13;2.70;;;15.70;99.90;;;;;;4973862;28;20031;-71
2021/08/10 00:51:19;;;;;;;4.82;3.30;;;15.80;99.90;;;;;;4970739;28;20050;-71
2021/08/10 00:53:55;;;;;;;6.05;3.13;;;15.80;99.90;;;;;;4954954;28;20031;-71
2021/08/10 00:56:22;;;;;;;8.02;3.17;;;15.80;99.90;;;;;;4970825;28;20057;-71
2021/08/10 00:58:51;;;;;;;6.30;3.65;;;15.80;99.90;;;;;;4971274;28;20500;-71
2021/08/10 01:01:17;;;;;;;7.00;2.85;;;15.90;99.90;;;;;;4957269;28;20070;-71
2021/08/10 01:03:44;;;;;;;4.40;2.75;;;16.00;99.90;;;;;;4957205;28;20500;-71
2021/08/10 01:06:18;;;;;;;8.60;3.92;;;16.00;99.90;;;;;;4973682;28;20046;-71
2021/08/10 01:09:11;;;;;;;4.88;3.30;;;16.00;99.90;;;;;;4962187;28;20401;-72
2021/08/10 01:11:49;;;;;;;8.18;3.63;;;15.80;99.90;;;;;;4965149;28;20040;-71
2021/08/10 01:14:31;;;;;;;4.85;3.05;;;15.70;99.90;;;;;;4970602;28;20054;-70
2021/08/10 01:17:05;;;;;;;5.63;2.60;;;15.70;99.90;;;;;;4970020;28;20398;-70
2021/08/10 01:19:50;;;;;;;5.53;3.05;;;15.70;99.90;;;;;;4969961;28;20059;-71
2021/08/10 01:22:20;;;;;;;6.80;3.10;;;15.80;99.90;;;;;;4954211;28;20412;-71
2021/08/10 01:25:14;;;;;;;8.25;4.03;;;15.70;99.90;;;;;;4954062;28;20058;-72
2021/08/10 01:28:05;;;;;;;5.13;3.20;;;15.70;99.90;;;;;;4975301;28;20043;-71
2021/08/10 01:30:57;;;;;;;7.97;2.97;;;15.70;99.90;;;;;;4954292;28;20058;-70
2021/08/10 01:33:25;;;;;;;6.40;3.53;;;15.70;99.90;;;;;;4953973;28;20051;-71
2021/08/10 01:35:53;;;;;;;6.18;3.30;;;15.70;99.90;;;;;;4956892;28;20042;-70
2021/08/10 01:38:22;;;;;;;5.65;3.13;;;15.70;99.90;;;;;;4972233;28;20042;-71
2021/08/10 01:40:49;;;;;;;8.43;3.20;;;15.60;99.90;;;;;;4964075;28;20062;-71
2021/08/10 01:43:17;;;;;;;9.52;3.45;;;15.60;99.90;;;;;;4972468;28;20051;-72
2021/08/10 01:45:43;;;;;;;6.50;2.63;;;15.70;99.90;;;;;;4972374;28;20039;-72
2021/08/10 01:48:14;;;;;;;5.63;3.05;;;15.80;99.90;;;;;;4972085;28;20043;-71
2021/08/10 01:50:41;;;;;;;5.97;2.85;;;15.80;99.90;;;;;;4974383;28;20042;-72
2021/08/10 01:53:17;;;;;;;6.15;3.38;;;15.80;99.90;;;;;;4953642;28;20050;-72
2021/08/10 01:55:46;;;;;;;6.45;4.78;;;15.80;99.90;;;;;;4976807;28;20043;-71
2021/08/10 01:58:20;;;;;;;5.30;3.63;;;15.90;99.90;;;;;;4970670;28;20405;-71
2021/08/10 02:00:50;;;;;;;5.60;3.67;;;15.90;99.90;;;;;;4971058;28;20058;-72
2021/08/10 02:03:18;;;;;;;6.15;3.08;;;16.00;99.90;;;;;;4972367;28;20039;-71
2021/08/10 02:05:53;;;;;;;6.25;3.40;;;16.00;99.90;;;;;;4969936;28;20065;-71
2021/08/10 02:08:29;;;;;;;6.28;2.92;;;16.00;99.90;;;;;;4974560;28;20054;-72
2021/08/10 02:10:57;;;;;;;7.03;3.07;;;16.00;99.90;;;;;;4953351;28;20576;-72
2021/08/10 02:13:27;;;;;;;8.73;3.28;;;15.90;99.90;;;;;;4953282;28;20291;-71
2021/08/10 02:15:54;;;;;;;7.65;3.00;;;15.90;99.90;;;;;;4963283;28;20046;-71
2021/08/10 02:18:22;;;;;;;5.25;2.63;;;15.90;99.90;;;;;;4960687;28;20055;-70
2021/08/10 02:21:01;;;;;;;4.22;2.75;;;15.90;99.90;;;;;;4965791;28;20070;-71
2021/08/10 02:23:31;;;;;;;4.82;2.50;;;15.90;99.90;;;;;;4971841;28;20046;-71
2021/08/10 02:26:00;;;;;;;4.90;2.00;;;15.90;99.90;;;;;;4971342;28;20759;-71
2021/08/10 02:28:28;;;;;;;7.87;3.23;;;15.90;99.90;;;;;;4969544;28;20042;-72
2021/08/10 02:30:57;;;;;;;3.92;2.40;;;15.90;99.90;;;;;;4970874;28;20043;-72
2021/08/10 02:33:39;;;;;;;6.22;3.00;;;15.80;99.90;;;;;;5071953;27;20395;-71
2021/08/10 02:36:13;;;;;;;5.47;2.75;;;15.80;99.90;;;;;;5083037;28;21034;-71
2021/08/10 02:38:42;;;;;;;4.78;2.88;;;15.70;99.90;;;;;;5068813;28;20041;-71
2021/08/10 02:41:10;;;;;;;3.95;2.60;;;15.60;99.90;;;;;;5083080;28;20470;-71
2021/08/10 02:43:47;;;;;;;5.68;2.97;;;15.60;99.90;;;;;;5066913;28;20045;-72
2021/08/10 02:46:13;;;;;;;5.85;3.58;;;15.50;99.90;;;;;;5067021;28;20059;-71
2021/08/10 02:48:40;;;;;;;4.32;2.60;;;15.50;99.90;;;;;;5081987;28;20041;-71
2021/08/10 02:51:08;;;;;;;11.20;3.95;;;15.50;99.90;;;;;;5074347;28;20047;-71
2021/08/10 02:53:35;;;;;;;7.93;3.15;;;15.50;99.90;;;;;;5082493;28;20051;-71
2021/08/10 02:56:27;;;;;;;5.70;3.30;;;15.40;99.90;;;;;;5083393;28;20052;-71
2021/08/10 02:59:00;;;;;;;5.32;2.63;;;15.40;99.90;;;;;;5067598;28;20025;-71
2021/08/10 03:01:34;;;;;;;6.65;3.25;;;15.50;99.90;;;;;;5085051;28;20478;-71
2021/08/10 03:04:02;;;;;;;8.07;3.45;;;15.40;99.90;;;;;;5084443;28;20028;-71
2021/08/10 03:06:31;;;;;;;23.13;3.15;;;15.40;99.90;;;;;;5068185;28;20033;-71
2021/08/10 03:08:59;;;;;;;7.15;2.70;;;15.50;99.90;;;;;;5066666;28;20033;-71
2021/08/10 03:11:34;;;;;;;4.63;2.63;;;15.50;99.90;;;;;;5082871;28;20478;-71
2021/08/10 03:14:03;;;;;;;7.03;2.70;;;15.50;99.90;;;;;;5067222;28;20033;-71
2021/08/10 03:16:33;;;;;;;5.28;2.85;;;15.50;99.90;;;;;;5125840;28;20051;-71
2021/08/10 03:19:02;;;;;;;5.25;2.30;;;15.50;99.90;;;;;;5113336;28;20040;-70
2021/08/10 03:21:29;;;;;;;5.65;3.03;;;15.50;99.90;;;;;;5074629;28;20402;-71
2021/08/10 03:23:57;;;;;;;4.75;2.05;;;15.50;99.90;;;;;;5067903;28;20029;-71
2021/08/10 03:26:25;;;;;;;7.38;3.35;;;15.50;99.90;;;;;;5081543;28;20502;-71
2021/08/10 03:28:53;;;;;;;6.90;2.80;;;15.50;99.90;;;;;;5068094;28;20048;-71
2021/08/10 03:31:21;;;;;;;5.57;2.45;;;15.60;99.90;;;;;;5081453;28;20058;-71
2021/08/10 03:33:50;;;;;;;5.55;3.15;;;15.50;99.90;;;;;;5069886;28;20056;-71
2021/08/10 03:36:18;;;;;;;6.47;3.05;;;15.50;99.90;;;;;;5066689;28;20470;-71
2021/08/10 03:38:46;;;;;;;7.40;3.00;;;15.50;99.90;;;;;;5074128;28;20043;-71
2021/08/10 03:41:13;;;;;;;5.40;3.33;;;15.40;99.90;;;;;;5074871;28;20470;-71
2021/08/10 03:43:43;;;;;;;5.38;3.20;;;15.40;99.90;;;;;;5059888;28;20060;-72
2021/08/10 03:46:10;;;;;;;9.30;3.40;;;15.40;99.90;;;;;;5071975;28;20041;-72
2021/08/10 03:48:43;;;;;;;6.80;3.75;;;15.50;99.90;;;;;;5068060;28;20052;-72
2021/08/10 03:51:14;;;;;;;5.28;2.90;;;15.50;99.90;;;;;;5061066;28;20041;-71
2021/08/10 03:53:41;;;;;;;5.88;2.53;;;15.60;99.90;;;;;;5054955;28;20052;-72
2021/08/10 03:56:09;;;;;;;10.05;3.10;;;15.60;99.90;;;;;;5053368;28;20045;-71
2021/08/10 03:58:41;;;;;;;8.18;3.45;;;15.70;99.90;;;;;;5072231;28;20497;-71
2021/08/10 04:01:10;;;;;;;4.55;2.92;;;15.70;99.90;;;;;;5067780;28;20060;-71
2021/08/10 04:03:42;;;;;;;5.50;2.90;;;15.80;99.90;;;;;;5062824;28;20045;-71
2021/08/10 04:06:11;;;;;;;6.55;2.92;;;15.70;99.90;;;;;;5052921;28;20044;-71
2021/08/10 04:08:38;;;;;;;7.80;2.97;;;15.70;99.90;;;;;;5068732;28;20479;-71
2021/08/10 04:11:06;;;;;;;5.43;3.38;;;15.70;99.90;;;;;;5067762;28;20471;-70
2021/08/10 04:13:33;;;;;;;7.03;3.60;;;15.70;99.90;;;;;;5053079;28;20044;-70
2021/08/10 04:16:03;;;;;;;5.57;3.33;;;15.70;99.90;;;;;;5084898;28;20402;-70
2021/08/10 04:18:36;;;;;;;6.25;3.47;;;15.60;99.90;;;;;;5052283;28;20041;-71
2021/08/10 04:21:03;;;;;;;6.40;2.95;;;15.60;99.90;;;;;;5068245;28;20045;-71
2021/08/10 04:23:30;;;;;;;7.85;3.75;;;15.70;99.90;;;;;;5056741;28;20390;-71
2021/08/10 04:25:58;;;;;;;5.60;3.83;;;15.70;99.90;;;;;;5069796;28;20044;-71
2021/08/10 04:28:25;;;;;;;6.75;3.78;;;15.70;99.90;;;;;;5052687;28;20048;-71
2021/08/10 04:30:51;;;;;;;6.70;4.28;;;15.80;99.90;;;;;;5071042;28;20044;-71
2021/08/10 04:33:18;;;;;;;6.55;4.63;;;15.80;99.90;;;;;;5056791;28;20056;-71
2021/08/10 04:35:45;;;;;;;5.97;4.50;;;15.80;99.90;;;;;;5059497;28;20056;-71
2021/08/10 04:38:11;;;;;;;6.03;3.97;;;15.80;99.90;;;;;;5056371;28;20470;-72
2021/08/10 04:40:40;;;;;;;5.55;3.92;;;15.80;99.90;;;;;;5053789;28;20048;-71
2021/08/10 04:43:09;;;;;;;6.13;4.63;;;15.80;99.90;;;;;;5053014;28;20466;-71
2021/08/10 04:45:39;;;;;;;7.82;4.38;;;15.80;99.90;;;;;;5066393;28;20033;-71
2021/08/10 04:48:05;;;;;;;9.15;4.70;;;15.90;99.90;;;;;;5065068;28;20490;-71
2021/08/10 04:50:34;;;;;;;7.47;4.47;;;15.90;99.90;;;;;;5051037;28;20041;-71
2021/08/10 04:53:01;;;;;;;5.05;4.13;;;16.00;99.90;;;;;;5066504;28;20437;-71
2021/08/10 04:55:28;;;;;;;9.30;5.57;;;16.00;99.90;;;;;;5050857;28;20505;-71
2021/08/10 04:57:54;;;;;;;7.13;4.45;;;16.10;99.90;;;;;;5051439;28;20044;-71
2021/08/10 05:00:22;;;;;;;6.22;4.40;;;16.10;99.90;;;;;;5051133;28;20049;-71
2021/08/10 05:02:49;;;;;;;6.70;4.75;;;16.10;99.90;;;;;;5069143;28;20059;-71
2021/08/10 05:05:16;;;;;;;7.53;4.32;;;16.10;99.90;;;;;;5057700;28;20486;-71
2021/08/10 05:07:44;;;;;;;4.78;4.05;;;16.10;99.90;;;;;;5054411;28;20041;-71
2021/08/10 05:10:14;;;;;;;7.43;4.10;;;16.20;99.90;;;;;;5065544;28;20045;-70
2021/08/10 05:12:40;;;;;;;7.05;4.05;;;16.20;99.90;;;;;;5069413;28;20063;-71
2021/08/10 05:15:11;;;;;;;6.40;3.72;;;16.20;99.90;;;;;;5066197;28;20037;-70
2021/08/10 05:17:38;;;;;;;7.35;3.17;;;16.20;99.90;;;;;;5066036;28;20037;-71
2021/08/10 05:20:07;;;;;;;7.43;2.78;;;16.20;99.90;;;;;;5065888;28;20048;-70
2021/08/10 05:22:36;;;;;;;6.05;3.40;;;16.20;99.90;;;;;;5050544;28;20041;-71
2021/08/10 05:25:06;;;;;;;4.15;2.65;;;16.30;99.90;;;;;;5064505;28;20056;-71
2021/08/10 05:27:34;;;;;;;6.00;2.97;;;16.30;99.90;;;;;;5049354;28;20391;-71
2021/08/10 05:30:00;;;;;;;6.13;3.92;;;16.40;99.90;;;;;;5050068;28;20036;-70
2021/08/10 05:32:28;;;;;;;6.80;2.58;;;16.40;99.90;;;;;;5052074;28;20057;-70
2021/08/10 05:34:56;;;;;;;5.85;2.75;;;16.40;99.90;;;;;;5049640;28;20058;-71
2021/08/10 05:37:22;;;;;;;4.78;2.47;;;16.40;99.90;;;;;;5069369;28;20047;-72
2021/08/10 05:39:48;;;;;;;4.57;2.35;;;16.40;99.90;;;;;;5052222;28;20376;-71
2021/08/10 05:42:14;;;;;;;6.78;3.17;;;16.50;99.90;;;;;;5051169;28;20045;-71
2021/08/10 05:44:41;;;;;;;7.93;3.15;;;16.50;99.90;;;;;;5066058;28;20056;-71
2021/08/10 05:47:10;;;;;;;5.47;2.78;;;16.60;99.90;;;;;;5034404;28;20383;-71
2021/08/10 05:49:38;;;;;;;6.00;2.58;;;16.70;99.90;;;;;;5066502;28;20045;-71
2021/08/10 05:52:04;;;;;;;6.63;2.92;;;16.80;99.90;;;;;;5050973;28;20068;-70
2021/08/10 05:54:32;;;;;;;6.32;3.17;;;16.90;99.90;;;;;;5065431;28;20491;-70
2021/08/10 05:56:58;;;;;;;5.45;2.90;;;17.20;99.90;;;;;;5063693;28;20089;-71
2021/08/10 05:59:25;;;;;;;4.65;2.35;;;17.40;99.90;;;;;;5050299;28;20037;-71
2021/08/10 06:01:54;;;;;;;3.95;2.70;;;17.50;99.90;;;;;;5065106;28;20044;-71
2021/08/10 06:04:21;;;;;;;5.93;3.13;;;17.50;99.90;;;;;;5051334;28;20029;-71
2021/08/10 06:06:47;;;;;;;6.93;2.92;;;17.40;99.90;;;;;;5064426;28;20060;-71
2021/08/10 06:09:13;;;;;;;7.70;3.75;;;17.40;99.90;;;;;;5065360;28;20044;-71
2021/08/10 06:11:40;;;;;;;5.93;3.17;;;17.30;99.90;;;;;;5049067;28;20127;-71
2021/08/10 06:14:10;;;;;;;3.50;2.53;;;17.30;99.90;;;;;;5066242;28;20049;-71
2021/08/10 06:16:37;;;;;;;6.03;3.30;;;17.30;99.90;;;;;;5059030;28;20028;-71
2021/08/10 06:19:10;;;;;;;9.95;3.17;;;17.20;99.90;;;;;;5065382;28;20033;-71
2021/08/10 06:21:37;;;;;;;5.97;3.00;;;17.20;99.90;;;;;;5095699;28;20500;-71
2021/08/10 06:24:04;;;;;;;6.80;2.78;;;17.10;99.90;;;;;;5061983;28;20078;-72
2021/08/10 06:26:32;;;;;;;6.75;3.00;;;17.10;99.90;;;;;;5095747;28;20044;-72
2021/08/10 06:28:59;;;;;;;8.73;3.05;;;17.20;99.90;;;;;;5064688;28;20053;-72
2021/08/10 06:31:25;;;;;;;8.02;2.85;;;17.20;99.90;;;;;;5061274;28;20374;-76
2021/08/10 06:33:53;;;;;;;3.25;2.72;;;17.30;99.90;;;;;;5065183;28;20402;-76
2021/08/10 06:36:23;;;;;;;7.68;3.15;;;17.30;99.90;;;;;;5050773;28;20047;-76
2021/08/10 06:38:49;;;;;;;6.68;2.80;;;17.20;99.90;;;;;;5068420;28;20043;-75
2021/08/10 06:41:17;;;;;;;4.50;2.67;;;17.20;99.90;;;;;;5056845;28;20069;-75
2021/08/10 06:43:58;;;;;;;4.65;2.60;;;17.10;99.90;;;;;;5059219;28;20362;-74
2021/08/10 06:46:26;;;;;;;7.28;3.03;;;17.10;99.90;;;;;;5058418;28;20025;-75
2021/08/10 06:48:57;;;;;;;4.97;2.80;;;17.10;99.90;;;;;;5050797;28;20064;-74
2021/08/10 06:51:28;;;;;;;9.15;3.40;;;17.10;99.90;;;;;;5064189;28;20025;-76
2021/08/10 06:53:55;;;;;;;4.43;2.63;;;17.10;99.90;;;;;;5055569;28;20049;-76
2021/08/10 06:56:22;;;;;;;6.85;2.97;;;17.20;99.90;;;;;;5049287;28;20029;-76
2021/08/10 06:58:54;;;;;;;4.50;2.58;;;17.30;99.90;;;;;;5068328;28;20467;-76
2021/08/10 07:01:22;;;;;;;5.70;2.47;;;17.40;99.90;;;;;;5035551;28;20049;-76
2021/08/10 07:03:49;;;;;;;4.85;2.53;;;17.60;99.90;;;;;;5051768;28;20052;-76
2021/08/10 07:06:18;;;;;;;6.07;2.65;;;17.70;99.90;;;;;;5050351;28;20041;-74
2021/08/10 07:08:45;;;;;;;4.78;2.75;;;17.80;99.90;;;;;;5082411;28;20056;-76
2021/08/10 07:11:11;;;;;;;7.80;2.83;;;18.00;99.90;;;;;;5049202;28;20509;-75
2021/08/10 07:13:38;;;;;;;6.90;2.38;;;18.00;99.40;;;;;;5066928;28;20059;-76
2021/08/10 07:16:04;;;;;;;4.53;2.42;;;18.20;99.90;;;;;;5064832;28;20456;-75
2021/08/10 07:18:31;;;;;;;5.22;2.50;;;18.30;99.80;;;;;;5051822;28;20021;-75
2021/08/10 07:20:58;;;;;;;8.35;3.15;;;18.50;99.30;;;;;;5086017;28;20041;-74
2021/08/10 07:23:26;;;;;;;6.18;3.92;;;18.60;98.90;;;;;;5070771;28;20044;-76
2021/08/10 07:25:53;;;;;;;7.95;3.42;;;18.80;98.40;;;;;;5060690;28;20428;-75
2021/08/10 07:28:28;;;;;;;9.05;4.60;;;18.60;98.90;;;;;;5053189;28;20052;-76
2021/08/10 07:30:54;;;;;;;6.68;3.45;;;18.90;97.90;;;;;;5053983;28;20029;-76
2021/08/10 07:33:22;;;;;;;7.43;3.88;;;18.80;97.90;;;;;;5068067;28;20380;-76
2021/08/10 07:35:48;;;;;;;7.82;4.32;;;19.00;97.30;;;;;;5051150;28;20387;-76
2021/08/10 07:38:15;;;;;;;6.88;4.07;;;18.90;96.50;;;;;;5053298;28;20045;-76
2021/08/10 07:40:41;;;;;;;9.07;4.50;;;18.60;97.70;;;;;;5068804;28;20052;-76
2021/08/10 07:43:08;;;;;;;6.53;3.95;;;18.60;97.80;;;;;;5067200;28;20049;-76
2021/08/10 07:45:40;;;;;;;6.35;3.88;;;18.50;98.10;;;;;;5067717;28;20051;-76
2021/08/10 07:48:13;;;;;;;8.43;4.55;;;18.50;98.50;;;;;;5053501;28;20045;-76
2021/08/10 07:50:39;;;;;;;9.23;3.97;;;18.50;98.80;;;;;;5054214;28;20025;-76
2021/08/10 07:53:06;;;;;;;10.18;4.63;;;18.40;99.20;;;;;;5052806;28;20437;-76
2021/08/10 07:55:35;;;;;;;9.73;4.47;;;18.50;99.10;;;;;;5086088;28;20605;-76
2021/08/10 07:58:01;;;;;;;6.85;3.80;;;18.70;99.60;;;;;;5053236;28;20025;-76
2021/08/10 08:00:28;;;;;;;7.40;4.03;;;18.60;99.70;;;;;;5067654;28;20057;-76
2021/08/10 08:02:55;;;;;;;10.70;4.30;;;18.70;99.70;;;;;;5067972;28;20481;-75
2021/08/10 08:05:21;;;;;;;8.50;4.07;;;18.80;99.60;;;;;;5068807;28;20487;-77
2021/08/10 08:07:47;;;;;;;7.50;4.20;;;19.00;99.70;;;;;;5066886;28;20056;-76
2021/08/10 08:10:14;;;;;;;6.10;3.75;;;19.30;99.90;;;;;;5068726;28;20045;-76
2021/08/10 08:12:42;;;;;;;6.90;3.38;;;19.60;98.60;;;;;;5063943;28;20056;-76
2021/08/10 08:15:10;;;;;;;7.25;4.30;;;19.60;97.60;;;;;;5052298;28;20048;-76
2021/08/10 08:17:37;;;;;;;8.85;4.60;;;19.70;98.60;;;;;;5070859;28;20052;-75
2021/08/10 08:20:04;;;;;;;9.68;4.53;;;19.80;96.70;;;;;;5043353;28;20041;-75
2021/08/10 08:22:30;;;;;;;8.23;4.55;;;19.50;96.60;;;;;;5055424;28;20478;-75
2021/08/10 08:24:56;;;;;;;9.55;3.97;;;19.40;97.20;;;;;;5054146;28;20033;-75
2021/08/10 08:27:23;;;;;;;9.23;4.72;;;19.40;98.40;;;;;;5059426;28;20371;-76
2021/08/10 08:29:50;;;;;;;13.30;4.60;;;19.40;96.70;;;;;;5063782;28;20045;-75
2021/08/10 08:32:16;;;;;;;7.80;4.95;;;19.20;97.80;;;;;;5066714;28;20537;-75
2021/08/10 08:34:42;;;;;;;15.30;5.10;;;19.50;98.50;;;;;;5053883;28;20052;-75
2021/08/10 08:37:09;;;;;;;11.60;4.60;;;19.60;97.30;;;;;;5061003;28;20049;-75
2021/08/10 08:39:35;;;;;;;7.93;4.10;;;19.60;97.20;;;;;;5066000;28;20047;-76
2021/08/10 08:42:02;;;;;;;10.43;4.30;;;19.80;96.80;;;;;;5051807;28;20446;-74
2021/08/10 08:44:36;;;;;;;8.82;3.78;;;19.70;96.30;;;;;;5052496;28;20049;-76
2021/08/10 08:47:06;;;;;;;5.40;3.25;;;19.50;97.00;;;;;;5058417;28;20096;-76
2021/08/10 08:49:36;;;;;;;6.85;2.75;;;19.80;97.30;;;;;;5056309;28;20048;-76
2021/08/10 08:52:05;;;;;;;6.68;3.28;;;20.20;96.40;;;;;;5051715;28;20048;-75
2021/08/10 08:54:33;;;;;;;8.70;3.35;;;20.60;97.50;;;;;;5051097;28;20056;-75
2021/08/10 08:57:00;;;;;;;7.95;2.90;;;21.10;95.40;;;;;;5056944;28;20037;-75
2021/08/10 08:59:27;;;;;;;7.40;3.15;;;21.30;94.50;;;;;;5066610;28;20045;-76
2021/08/10 09:01:54;;;;;;;5.68;2.72;;;21.40;92.50;;;;;;5084353;28;20049;-75
2021/08/10 09:04:22;;;;;;;7.60;2.97;;;21.50;91.90;;;;;;5051413;28;20048;-76
2021/08/10 09:06:56;;;;;;;8.02;2.88;;;21.60;91.30;;;;;;5064930;28;20066;-75
2021/08/10 09:09:25;;;;;;;5.53;2.50;;;21.00;91.90;;;;;;5046492;28;20040;-75
2021/08/10 09:12:01;;;;;;;6.63;2.70;;;21.40;91.30;;;;;;5066605;28;20490;-76
2021/08/10 09:14:52;;;;;;;6.38;2.85;;;22.90;89.90;;;;;;5066220;28;20041;-76
2021/08/10 09:17:33;;;;;;;4.43;2.25;;;24.20;77.90;;;;;;5066746;28;20041;-75
2021/08/10 09:20:05;;;;;;;7.00;2.53;;;23.40;78.20;;;;;;5052248;28;20052;-75
2021/08/10 09:22:42;;;;;;;7.07;2.38;;;22.80;78.90;;;;;;5059564;28;20049;-76
2021/08/10 09:25:29;;;;;;;6.07;2.65;;;22.50;79.00;;;;;;5051783;28;20056;-76
2021/08/10 09:28:09;;;;;;;6.50;2.65;;;22.20;81.40;;;;;;5062077;28;20375;-76
2021/08/10 09:30:39;;;;;;;10.02;3.58;;;22.90;81.80;;;;;;5065928;28;20056;-76
2021/08/10 09:33:07;;;;;;;6.80;4.05;;;23.90;77.70;;;;;;5049902;28;20048;-76
2021/08/10 09:35:40;;;;;;;7.95;3.67;;;24.30;72.70;;;;;;5050760;28;20069;-76
2021/08/10 09:38:20;;;;;;;8.70;3.38;;;24.30;73.80;;;;;;5051085;28;20049;-76
2021/08/10 09:40:52;;;;;;;5.10;3.58;;;23.70;74.60;;;;;;5054715;28;20052;-76
2021/08/10 09:43:33;;;;;;;6.35;3.03;;;23.60;75.90;;;;;;5054552;28;20055;-73
2021/08/10 09:46:21;;;;;;;5.85;3.25;;;23.20;77.20;;;;;;5066132;28;20041;-75
2021/08/10 09:48:48;;;;;;;7.70;3.40;;;23.40;76.90;;;;;;5070409;28;20045;-75
2021/08/10 09:51:18;;;;;;;10.20;4.35;;;23.60;74.90;;;;;;5049084;28;20041;-75
2021/08/10 09:54:01;;;;;;;10.48;4.00;;;24.10;72.70;;;;;;5065269;28;20045;-75
2021/08/10 09:56:43;;;;;;;11.15;3.70;;;23.70;71.60;;;;;;5066253;28;20068;-75
2021/08/10 09:59:09;;;;;;;7.70;3.55;;;22.70;74.80;;;;;;5066511;28;20383;-75
2021/08/10 10:01:40;;;;;;;8.05;4.18;;;22.50;75.90;;;;;;5062967;28;20493;-75
2021/08/10 10:04:20;;;;;;;5.50;3.47;;;22.60;74.90;;;;;;5065785;28;20041;-75
2021/08/10 10:07:07;;;;;;;6.55;3.97;;;22.40;75.20;;;;;;5063648;28;20043;-74
2021/08/10 10:09:34;;;;;;;;;;;22.70;76.60;;;;;;5051217;28;20044;-75
2021/08/10 10:12:01;;;;;;;6.63;3.30;;;23.40;73.90;;;;;;5051556;28;19908;-74
2021/08/10 10:14:29;;;;;;;10.32;3.28;;;23.50;70.30;;;;;;5050155;28;20052;-75
2021/08/10 10:16:57;;;;;;;7.50;2.90;;;23.10;70.40;;;;;;5051582;28;20036;-75
2021/08/10 10:19:23;;;;;;;9.90;3.63;;;23.00;68.90;;;;;;5052042;28;20037;-74
2021/08/10 10:21:53;;;;;;;5.68;3.10;;;22.90;69.10;;;;;;5050607;28;20044;-76
2021/08/10 10:24:21;;;;;;;6.20;2.75;;;22.70;70.30;;;;;;5081089;28;20049;-74
2021/08/10 10:27:10;;;;;;;8.93;3.17;;;23.00;69.50;;;;;;5050185;28;20045;-75
2021/08/10 10:29:39;;;;;;;6.43;2.67;;;23.40;68.80;;;;;;5058207;28;20052;-77
2021/08/10 10:32:06;;;;;;;7.17;2.43;;;23.50;68.50;;;;;;5050771;28;20128;-76
2021/08/10 10:34:37;;;;;;;5.18;2.47;;;23.50;69.00;;;;;;5051428;28;20048;-76
2021/08/10 10:37:05;;;;;;;7.47;2.30;;;23.60;67.40;;;;;;5050919;28;20029;-75
2021/08/10 10:39:35;;;;;;;6.85;2.83;;;23.70;65.90;;;;;;5051375;28;20048;-77
2021/08/10 10:42:02;;;;;;;;;;;23.10;67.00;;;;;;5061213;28;20033;-76
2021/08/10 10:44:51;;;;;;;4.35;2.35;;;23.20;67.30;;;;;;5051303;28;19912;-74
2021/08/10 10:47:28;;;;;;;3.67;2.53;;;23.40;66.10;;;;;;5056710;28;20025;-75
2021/08/10 10:49:57;;;;;;;4.05;1.95;;;23.50;64.70;;;;;;5065807;28;20474;-75
2021/08/10 10:52:28;;;;;;;4.03;1.83;;;23.90;63.40;;;;;;5051784;28;20104;-76
2021/08/10 10:54:55;;;;;;;5.00;1.88;;;24.40;61.10;;;;;;5067351;28;20064;-77
2021/08/10 10:57:33;;;;;;;3.75;2.22;;;24.10;62.60;;;;;;5073764;28;20024;-76
2021/08/10 11:00:08;;;;;;;3.95;1.88;;;24.20;64.20;;;;;;5055033;28;20032;-76
2021/08/10 11:02:36;;;;;;;3.53;2.10;;;24.60;62.60;;;;;;5057924;28;20059;-75
2021/08/10 11:05:08;;;;;;;5.70;2.05;;;24.70;62.80;;;;;;5067693;28;20033;-76
2021/08/10 11:07:45;;;;;;;5.40;1.90;;;24.30;62.60;;;;;;5067376;28;20037;-75
2021/08/10 11:10:46;;;;;;;6.35;1.88;;;24.40;62.70;;;;;;5057116;28;20056;-75
2021/08/10 11:13:21;;;;;;;5.05;2.00;;;24.50;61.80;;;;;;5054512;28;20037;-75
2021/08/10 11:15:47;;;;;;;5.57;1.88;;;24.30;60.20;;;;;;5058687;28;20461;-76
2021/08/10 11:18:13;;;;;;;3.80;1.90;;;24.30;62.10;;;;;;5062500;28;20025;-76
2021/08/10 11:20:53;;;;;;;6.68;1.80;;;24.50;62.20;;;;;;5055203;28;20039;-76
2021/08/10 11:23:20;;;;;;;6.28;1.50;;;24.70;61.50;;;;;;5062256;28;20056;-75
2021/08/10 11:25:47;;;;;;;4.10;1.80;;;25.30;58.70;;;;;;5053385;28;20041;-75
2021/08/10 11:28:36;;;;;;;3.63;2.22;;;25.50;58.10;;;;;;5058764;28;20028;-75
2021/08/10 11:31:08;;;;;;;5.22;2.00;;;25.70;56.50;;;;;;5054883;28;20044;-78
2021/08/10 11:33:36;;;;;;;2.92;1.75;;;26.10;56.60;;;;;;5061212;28;20057;-76
2021/08/10 11:36:14;;;;;;;3.65;1.83;;;25.60;57.00;;;;;;5054179;28;20059;-75
2021/08/10 11:38:52;;;;;;;4.43;1.98;;;25.60;56.30;;;;;;5054229;28;20033;-75
2021/08/10 11:41:27;;;;;;;5.15;1.92;;;25.80;55.40;;;;;;5053650;28;20376;-74
2021/08/10 11:43:59;;;;;;;4.55;1.85;;;25.70;55.80;;;;;;5053843;28;20498;-76
2021/08/10 11:46:28;;;;;;;4.40;1.90;;;25.80;56.30;;;;;;5066961;28;20029;-76
2021/08/10 11:49:00;;;;;;;4.57;1.92;;;25.70;55.40;;;;;;5053364;28;20040;-76
2021/08/10 11:51:34;;;;;;;5.78;1.80;;;25.80;56.40;;;;;;5053889;28;20462;-76
2021/08/10 11:54:07;;;;;;;6.10;2.08;;;26.00;56.40;;;;;;5053187;28;20056;-76
2021/08/10 11:56:38;;;;;;;5.78;2.80;;;25.70;56.30;;;;;;5068303;28;20037;-76
2021/08/10 11:59:09;;;;;;;3.97;2.30;;;25.30;56.30;;;;;;5055026;28;20041;-75
2021/08/10 12:01:37;;;;;;;3.47;2.05;;;25.20;56.90;;;;;;5053791;28;20044;-76
2021/08/10 12:04:19;;;;;;;3.63;2.20;;;24.80;56.90;;;;;;5053035;28;20033;-76
2021/08/10 12:06:48;;;;;;;3.58;1.80;;;24.90;57.20;;;;;;5053506;28;20572;-76
2021/08/10 12:09:19;;;;;;;3.35;1.95;;;24.60;57.50;;;;;;5053787;28;20351;-76
2021/08/10 12:11:57;;;;;;;4.28;2.13;;;24.70;58.00;;;;;;5068350;28;20039;-75
2021/08/10 12:14:29;;;;;;;3.00;1.63;;;25.10;57.90;;;;;;5068021;28;20059;-76
2021/08/10 12:17:00;;;;;;;4.88;2.75;;;25.00;57.80;;;;;;5071316;28;20037;-76
2021/08/10 12:19:30;;;;;;;4.47;2.35;;;25.00;57.70;;;;;;5068550;28;20036;-76
2021/08/10 12:21:56;;;;;;;3.72;2.25;;;24.60;57.20;;;;;;5061530;28;20051;-76
2021/08/10 12:24:37;;;;;;;4.75;2.90;;;24.40;58.90;;;;;;5069424;28;20041;-75
2021/08/10 12:27:04;;;;;;;3.63;2.35;;;24.50;58.50;;;;;;5052629;28;20040;-76
2021/08/10 12:29:38;;;;;;;4.50;2.63;;;24.70;58.60;;;;;;5070754;28;20032;-76
2021/08/10 12:32:06;;;;;;;4.03;2.25;;;24.80;58.20;;;;;;5055013;28;20053;-76
2021/08/10 12:34:34;;;;;;;3.75;2.33;;;25.10;57.20;;;;;;5054973;28;20041;-75
2021/08/10 12:37:02;;;;;;;4.70;2.03;;;25.40;57.80;;;;;;5067046;28;20056;-76
2021/08/10 12:39:29;;;;;;;3.92;2.33;;;25.60;56.70;;;;;;5053565;28;20040;-76
2021/08/10 12:42:00;;;;;;;3.42;2.10;;;25.70;55.70;;;;;;5061290;28;20036;-76
2021/08/10 12:44:28;;;;;;;5.95;1.85;;;25.60;56.40;;;;;;5059623;28;20033;-76
2021/08/10 12:46:56;;;;;;;4.55;2.25;;;25.50;56.90;;;;;;5054466;28;20033;-77
2021/08/10 12:49:45;;;;;;;3.53;2.15;;;25.50;56.40;;;;;;5074230;28;20028;-75
2021/08/10 12:52:12;;;;;;;5.18;2.58;;;25.90;57.10;;;;;;5067146;28;20036;-75
2021/08/10 12:54:48;;;;;;;4.03;2.00;;;26.20;56.50;;;;;;5062957;28;20041;-77
2021/08/10 12:57:25;;;;;;;3.90;2.35;;;26.20;55.40;;;;;;5071163;28;20036;-77
2021/08/10 13:00:12;;;;;;;3.97;1.90;;;26.00;56.50;;;;;;5061316;28;20036;-75
2021/08/10 13:02:42;;;;;;;4.07;2.47;;;26.00;55.80;;;;;;5052063;28;20037;-76
2021/08/10 13:05:12;;;;;;;6.28;1.88;;;26.20;55.90;;;;;;5059150;28;20119;-77